Terminal Aerodrome Forecast
Issued by NWS San Angelo, TX

Home | Current Version | Previous Version | Text Only | Print | Product List | Glossary On
Versions: 1 2 3 4 5 6 7 8 9 10 11 12 13 14
000
FTUS44 KSJT 010520
TAFABI
TAF
KABI 010520Z 0106/0206 14008KT P6SM SKC
     FM011800 19010G16KT P6SM FEW080=

USA.gov is the U.S. government's official web portal to all federal, state and local government web resources and services.